sensor_id;sensor_type;location;lat;lon;timestamp;pressure;altitude;pressure_sealevel;temperature;humidity
50310;BME280;36207;51.850;21.698;2023-03-04T00:01:54;99607.77;;;-0.07;79.78
50310;BME280;36207;51.850;21.698;2023-03-04T00:04:20;99601.70;;;-0.06;80.00
50310;BME280;36207;51.850;21.698;2023-03-04T00:06:46;99603.44;;;-0.06;79.84
50310;BME280;36207;51.850;21.698;2023-03-04T00:09:12;99602.09;;;-0.04;79.87
50310;BME280;36207;51.850;21.698;2023-03-04T00:11:38;99596.61;;;-0.03;79.78
50310;BME280;36207;51.850;21.698;2023-03-04T00:14:04;99592.14;;;-0.02;79.85
50310;BME280;36207;51.850;21.698;2023-03-04T00:16:30;99587.80;;;-0.03;79.77
50310;BME280;36207;51.850;21.698;2023-03-04T00:18:56;99586.61;;;-0.01;79.98
50310;BME280;36207;51.850;21.698;2023-03-04T00:21:23;99582.18;;;0.02;80.03
50310;BME280;36207;51.850;21.698;2023-03-04T00:23:49;99578.27;;;0.03;79.83
50310;BME280;36207;51.850;21.698;2023-03-04T00:26:16;99569.67;;;0.02;79.78
50310;BME280;36207;51.850;21.698;2023-03-04T00:28:42;99561.82;;;0.01;79.88
50310;BME280;36207;51.850;21.698;2023-03-04T00:31:09;99560.91;;;0.02;80.06
50310;BME280;36207;51.850;21.698;2023-03-04T00:33:35;99554.98;;;0.03;80.00
50310;BME280;36207;51.850;21.698;2023-03-04T00:36:02;99553.04;;;0.04;80.05
50310;BME280;36207;51.850;21.698;2023-03-04T00:38:28;99547.64;;;0.03;79.96
50310;BME280;36207;51.850;21.698;2023-03-04T00:40:54;99541.11;;;0.04;79.96
50310;BME280;36207;51.850;21.698;2023-03-04T00:43:20;99540.48;;;0.03;79.69
50310;BME280;36207;51.850;21.698;2023-03-04T00:45:46;99540.92;;;0.04;79.79
50310;BME280;36207;51.850;21.698;2023-03-04T00:48:12;99536.09;;;0.03;79.86
50310;BME280;36207;51.850;21.698;2023-03-04T00:50:39;99528.35;;;0.04;79.70
50310;BME280;36207;51.850;21.698;2023-03-04T00:53:05;99526.79;;;0.04;79.67
50310;BME280;36207;51.850;21.698;2023-03-04T00:55:31;99529.16;;;0.04;79.79
50310;BME280;36207;51.850;21.698;2023-03-04T00:57:57;99533.39;;;0.06;79.58
50310;BME280;36207;51.850;21.698;2023-03-04T01:00:22;99527.89;;;0.07;79.53
50310;BME280;36207;51.850;21.698;2023-03-04T01:02:48;99530.21;;;0.07;79.64
50310;BME280;36207;51.850;21.698;2023-03-04T01:05:14;99532.53;;;0.06;79.49
50310;BME280;36207;51.850;21.698;2023-03-04T01:07:40;99528.02;;;0.06;79.37
50310;BME280;36207;51.850;21.698;2023-03-04T01:10:10;99530.96;;;0.08;79.66
50310;BME280;36207;51.850;21.698;2023-03-04T01:12:36;99527.23;;;0.09;79.55
50310;BME280;36207;51.850;21.698;2023-03-04T01:15:03;99524.19;;;0.07;79.31
50310;BME280;36207;51.850;21.698;2023-03-04T01:17:29;99516.22;;;0.09;79.50
50310;BME280;36207;51.850;21.698;2023-03-04T01:19:55;99504.96;;;0.07;79.32
50310;BME280;36207;51.850;21.698;2023-03-04T01:22:20;99502.10;;;0.06;79.24
50310;BME280;36207;51.850;21.698;2023-03-04T01:24:46;99501.17;;;0.05;78.89
50310;BME280;36207;51.850;21.698;2023-03-04T01:27:12;99490.44;;;0.03;78.91
50310;BME280;36207;51.850;21.698;2023-03-04T01:29:38;99486.23;;;0.03;79.10
50310;BME280;36207;51.850;21.698;2023-03-04T01:32:04;99482.89;;;0.03;79.02
50310;BME280;36207;51.850;21.698;2023-03-04T01:34:30;99482.23;;;0.00;78.75
50310;BME280;36207;51.850;21.698;2023-03-04T01:36:56;99482.63;;;-0.03;78.59
50310;BME280;36207;51.850;21.698;2023-03-04T01:39:22;99479.33;;;-0.03;78.86
50310;BME280;36207;51.850;21.698;2023-03-04T01:41:48;99474.10;;;-0.03;79.09
50310;BME280;36207;51.850;21.698;2023-03-04T01:44:14;99471.48;;;-0.03;78.97
50310;BME280;36207;51.850;21.698;2023-03-04T01:46:43;99468.21;;;-0.04;79.24
50310;BME280;36207;51.850;21.698;2023-03-04T01:49:12;99465.89;;;-0.04;79.14
50310;BME280;36207;51.850;21.698;2023-03-04T01:51:41;99460.70;;;-0.02;79.31
50310;BME280;36207;51.850;21.698;2023-03-04T01:54:07;99459.03;;;-0.01;79.21
50310;BME280;36207;51.850;21.698;2023-03-04T01:56:36;99456.04;;;-0.00;79.21
50310;BME280;36207;51.850;21.698;2023-03-04T02:01:39;99448.03;;;0.02;79.27
50310;BME280;36207;51.850;21.698;2023-03-04T02:04:05;99440.88;;;0.01;79.28
50310;BME280;36207;51.850;21.698;2023-03-04T02:06:34;99440.05;;;0.01;79.41
50310;BME280;36207;51.850;21.698;2023-03-04T02:09:00;99433.46;;;-0.00;79.56
50310;BME280;36207;51.850;21.698;2023-03-04T02:11:26;99418.99;;;-0.02;79.36
50310;BME280;36207;51.850;21.698;2023-03-04T02:13:52;99415.40;;;0.00;79.52
50310;BME280;36207;51.850;21.698;2023-03-04T02:16:18;99390.45;;;0.02;79.62
50310;BME280;36207;51.850;21.698;2023-03-04T02:18:44;99380.64;;;0.02;79.67
50310;BME280;36207;51.850;21.698;2023-03-04T02:21:29;99373.08;;;0.00;79.59
50310;BME280;36207;51.850;21.698;2023-03-04T02:26:58;99359.39;;;0.02;80.06
50310;BME280;36207;51.850;21.698;2023-03-04T02:29:24;99358.38;;;0.04;79.91
50310;BME280;36207;51.850;21.698;2023-03-04T02:31:52;99360.91;;;0.03;79.79
50310;BME280;36207;51.850;21.698;2023-03-04T02:34:28;99356.02;;;0.03;79.96
50310;BME280;36207;51.850;21.698;2023-03-04T02:36:55;99351.66;;;0.03;79.89
50310;BME280;36207;51.850;21.698;2023-03-04T02:39:31;99348.40;;;0.04;79.87
50310;BME280;36207;51.850;21.698;2023-03-04T02:41:58;99340.51;;;0.04;79.93
50310;BME280;36207;51.850;21.698;2023-03-04T02:44:29;99340.84;;;0.05;80.12
50310;BME280;36207;51.850;21.698;2023-03-04T02:46:57;99343.38;;;0.05;80.28
50310;BME280;36207;51.850;21.698;2023-03-04T02:49:26;99332.15;;;0.06;80.13
50310;BME280;36207;51.850;21.698;2023-03-04T02:52:02;99324.55;;;0.07;80.06
50310;BME280;36207;51.850;21.698;2023-03-04T02:54:29;99317.52;;;0.07;80.10
50310;BME280;36207;51.850;21.698;2023-03-04T02:56:58;99311.34;;;0.08;80.23
50310;BME280;36207;51.850;21.698;2023-03-04T02:59:24;99309.32;;;0.07;80.16
50310;BME280;36207;51.850;21.698;2023-03-04T03:01:50;99313.48;;;0.07;80.35
50310;BME280;36207;51.850;21.698;2023-03-04T03:04:17;99313.71;;;0.07;80.36
50310;BME280;36207;51.850;21.698;2023-03-04T03:06:44;99310.23;;;0.06;80.54
50310;BME280;36207;51.850;21.698;2023-03-04T03:09:10;99317.27;;;0.08;80.62
50310;BME280;36207;51.850;21.698;2023-03-04T03:11:36;99307.45;;;0.08;80.53
50310;BME280;36207;51.850;21.698;2023-03-04T03:14:02;99312.61;;;0.07;80.54
50310;BME280;36207;51.850;21.698;2023-03-04T03:16:29;99313.91;;;0.08;80.68
50310;BME280;36207;51.850;21.698;2023-03-04T03:18:55;99321.00;;;0.09;80.81
50310;BME280;36207;51.850;21.698;2023-03-04T03:21:21;99319.42;;;0.09;80.79
50310;BME280;36207;51.850;21.698;2023-03-04T03:23:46;99318.95;;;0.09;80.85
50310;BME280;36207;51.850;21.698;2023-03-04T03:26:12;99318.69;;;0.12;80.89
50310;BME280;36207;51.850;21.698;2023-03-04T03:28:39;99316.47;;;0.11;80.78
50310;BME280;36207;51.850;21.698;2023-03-04T03:31:05;99310.91;;;0.11;81.00
50310;BME280;36207;51.850;21.698;2023-03-04T03:33:31;99306.91;;;0.11;80.93
50310;BME280;36207;51.850;21.698;2023-03-04T03:35:57;99312.41;;;0.12;81.03
50310;BME280;36207;51.850;21.698;2023-03-04T03:38:23;99309.88;;;0.13;81.22
50310;BME280;36207;51.850;21.698;2023-03-04T03:40:48;99309.07;;;0.14;81.21
50310;BME280;36207;51.850;21.698;2023-03-04T03:43:14;99315.37;;;0.16;81.11
50310;BME280;36207;51.850;21.698;2023-03-04T03:45:40;99312.20;;;0.18;81.16
50310;BME280;36207;51.850;21.698;2023-03-04T03:48:06;99313.02;;;0.21;81.07
50310;BME280;36207;51.850;21.698;2023-03-04T03:50:32;99311.41;;;0.21;81.16
50310;BME280;36207;51.850;21.698;2023-03-04T03:52:58;99309.95;;;0.22;81.27
50310;BME280;36207;51.850;21.698;2023-03-04T03:55:24;99309.36;;;0.23;81.26
50310;BME280;36207;51.850;21.698;2023-03-04T03:57:50;99313.77;;;0.24;81.32
50310;BME280;36207;51.850;21.698;2023-03-04T04:00:16;99304.84;;;0.25;81.53
50310;BME280;36207;51.850;21.698;2023-03-04T04:02:42;99307.77;;;0.25;81.42
50310;BME280;36207;51.850;21.698;2023-03-04T04:05:09;99305.98;;;0.28;81.63
50310;BME280;36207;51.850;21.698;2023-03-04T04:07:35;99299.88;;;0.29;81.51
50310;BME280;36207;51.850;21.698;2023-03-04T04:10:03;99296.36;;;0.29;81.46
50310;BME280;36207;51.850;21.698;2023-03-04T04:12:29;99292.85;;;0.30;81.48
50310;BME280;36207;51.850;21.698;2023-03-04T04:14:55;99290.98;;;0.31;81.53
50310;BME280;36207;51.850;21.698;2023-03-04T04:17:20;99291.71;;;0.34;81.63
50310;BME280;36207;51.850;21.698;2023-03-04T04:19:46;99284.52;;;0.37;81.49
50310;BME280;36207;51.850;21.698;2023-03-04T04:22:15;99289.35;;;0.37;81.39
50310;BME280;36207;51.850;21.698;2023-03-04T04:24:41;99285.35;;;0.39;81.46
50310;BME280;36207;51.850;21.698;2023-03-04T04:27:07;99283.34;;;0.40;81.28
50310;BME280;36207;51.850;21.698;2023-03-04T04:29:33;99284.11;;;0.41;81.23
50310;BME280;36207;51.850;21.698;2023-03-04T04:31:59;99286.14;;;0.42;81.17
50310;BME280;36207;51.850;21.698;2023-03-04T04:34:25;99289.60;;;0.43;81.24
50310;BME280;36207;51.850;21.698;2023-03-04T04:36:51;99288.75;;;0.42;81.28
50310;BME280;36207;51.850;21.698;2023-03-04T04:39:18;99285.61;;;0.44;81.51
50310;BME280;36207;51.850;21.698;2023-03-04T04:41:44;99287.02;;;0.46;81.26
50310;BME280;36207;51.850;21.698;2023-03-04T04:44:11;99285.09;;;0.47;81.20
50310;BME280;36207;51.850;21.698;2023-03-04T04:46:38;99282.67;;;0.48;81.09
50310;BME280;36207;51.850;21.698;2023-03-04T04:49:05;99286.14;;;0.50;81.21
50310;BME280;36207;51.850;21.698;2023-03-04T04:51:32;99282.88;;;0.54;81.24
50310;BME280;36207;51.850;21.698;2023-03-04T04:53:59;99279.60;;;0.55;81.24
50310;BME280;36207;51.850;21.698;2023-03-04T04:56:27;99277.34;;;0.57;81.15
50310;BME280;36207;51.850;21.698;2023-03-04T04:58:56;99277.52;;;0.59;81.11
50310;BME280;36207;51.850;21.698;2023-03-04T05:01:22;99275.48;;;0.60;81.30
50310;BME280;36207;51.850;21.698;2023-03-04T05:03:48;99276.61;;;0.63;81.24
50310;BME280;36207;51.850;21.698;2023-03-04T05:06:18;99271.90;;;0.63;81.29
50310;BME280;36207;51.850;21.698;2023-03-04T05:08:46;99270.36;;;0.63;81.29
50310;BME280;36207;51.850;21.698;2023-03-04T05:11:12;99271.86;;;0.66;81.11
50310;BME280;36207;51.850;21.698;2023-03-04T05:13:38;99262.96;;;0.69;81.26
50310;BME280;36207;51.850;21.698;2023-03-04T05:16:04;99262.39;;;0.70;81.17
50310;BME280;36207;51.850;21.698;2023-03-04T05:18:30;99264.83;;;0.70;81.25
50310;BME280;36207;51.850;21.698;2023-03-04T05:20:59;99260.40;;;0.71;81.28
50310;BME280;36207;51.850;21.698;2023-03-04T05:23:27;99262.00;;;0.72;81.26
50310;BME280;36207;51.850;21.698;2023-03-04T05:25:53;99257.08;;;0.73;81.30
50310;BME280;36207;51.850;21.698;2023-03-04T05:28:19;99256.55;;;0.73;81.30
50310;BME280;36207;51.850;21.698;2023-03-04T05:30:45;99256.05;;;0.74;81.27
50310;BME280;36207;51.850;21.698;2023-03-04T05:33:13;99257.26;;;0.76;81.29
50310;BME280;36207;51.850;21.698;2023-03-04T05:35:40;99259.59;;;0.80;81.33
50310;BME280;36207;51.850;21.698;2023-03-04T05:38:09;99255.44;;;0.81;81.12
50310;BME280;36207;51.850;21.698;2023-03-04T05:40:35;99258.05;;;0.81;81.13
50310;BME280;36207;51.850;21.698;2023-03-04T05:43:01;99254.98;;;0.81;80.95
50310;BME280;36207;51.850;21.698;2023-03-04T05:45:27;99256.61;;;0.84;81.10
50310;BME280;36207;51.850;21.698;2023-03-04T05:47:54;99259.16;;;0.86;81.04
50310;BME280;36207;51.850;21.698;2023-03-04T05:50:21;99257.27;;;0.88;81.05
50310;BME280;36207;51.850;21.698;2023-03-04T05:52:48;99254.77;;;0.88;81.08
50310;BME280;36207;51.850;21.698;2023-03-04T05:55:15;99255.95;;;0.91;80.98
50310;BME280;36207;51.850;21.698;2023-03-04T05:57:42;99249.02;;;0.92;81.03
50310;BME280;36207;51.850;21.698;2023-03-04T06:00:10;99244.39;;;0.93;80.91
50310;BME280;36207;51.850;21.698;2023-03-04T06:02:38;99243.45;;;0.94;80.78
50310;BME280;36207;51.850;21.698;2023-03-04T06:05:04;99242.09;;;0.94;80.82
50310;BME280;36207;51.850;21.698;2023-03-04T06:07:30;99239.20;;;0.94;81.05
50310;BME280;36207;51.850;21.698;2023-03-04T06:09:56;99242.84;;;0.97;81.00
50310;BME280;36207;51.850;21.698;2023-03-04T06:12:22;99245.54;;;0.98;81.16
50310;BME280;36207;51.850;21.698;2023-03-04T06:14:48;99238.25;;;0.97;81.05
50310;BME280;36207;51.850;21.698;2023-03-04T06:17:14;99235.51;;;0.97;81.07
50310;BME280;36207;51.850;21.698;2023-03-04T06:19:40;99235.05;;;0.98;81.29
50310;BME280;36207;51.850;21.698;2023-03-04T06:22:10;99234.50;;;0.98;81.36
50310;BME280;36207;51.850;21.698;2023-03-04T06:24:36;99231.95;;;0.97;81.41
50310;BME280;36207;51.850;21.698;2023-03-04T06:27:03;99226.60;;;0.96;81.64
50310;BME280;36207;51.850;21.698;2023-03-04T06:29:29;99223.38;;;0.97;81.36
50310;BME280;36207;51.850;21.698;2023-03-04T06:31:55;99217.22;;;0.99;81.64
50310;BME280;36207;51.850;21.698;2023-03-04T06:34:22;99215.11;;;1.01;81.74
50310;BME280;36207;51.850;21.698;2023-03-04T06:36:48;99214.39;;;0.99;81.68
50310;BME280;36207;51.850;21.698;2023-03-04T06:39:14;99215.13;;;1.01;81.58
50310;BME280;36207;51.850;21.698;2023-03-04T06:41:40;99208.52;;;1.02;81.73
50310;BME280;36207;51.850;21.698;2023-03-04T06:44:06;99206.10;;;1.02;81.64
50310;BME280;36207;51.850;21.698;2023-03-04T06:46:33;99205.08;;;1.03;81.62
50310;BME280;36207;51.850;21.698;2023-03-04T06:48:59;99207.54;;;1.04;81.58
50310;BME280;36207;51.850;21.698;2023-03-04T06:51:25;99204.41;;;1.03;81.42
50310;BME280;36207;51.850;21.698;2023-03-04T06:53:51;99208.62;;;1.05;81.73
50310;BME280;36207;51.850;21.698;2023-03-04T06:56:17;99210.20;;;1.05;81.54
50310;BME280;36207;51.850;21.698;2023-03-04T06:58:43;99214.23;;;1.05;81.58
50310;BME280;36207;51.850;21.698;2023-03-04T07:01:24;99216.76;;;1.04;81.37
50310;BME280;36207;51.850;21.698;2023-03-04T07:03:51;99217.75;;;1.05;81.58
50310;BME280;36207;51.850;21.698;2023-03-04T07:06:20;99222.93;;;1.06;81.46
50310;BME280;36207;51.850;21.698;2023-03-04T07:08:47;99218.17;;;1.06;81.53
50310;BME280;36207;51.850;21.698;2023-03-04T07:11:13;99214.71;;;1.06;81.42
50310;BME280;36207;51.850;21.698;2023-03-04T07:13:39;99222.13;;;1.05;81.49
50310;BME280;36207;51.850;21.698;2023-03-04T07:16:07;99219.77;;;1.06;81.33
50310;BME280;36207;51.850;21.698;2023-03-04T07:18:34;99218.02;;;1.06;81.40
50310;BME280;36207;51.850;21.698;2023-03-04T07:21:01;99213.96;;;1.06;81.34
50310;BME280;36207;51.850;21.698;2023-03-04T07:23:27;99213.22;;;1.06;81.26
50310;BME280;36207;51.850;21.698;2023-03-04T07:25:53;99209.73;;;1.06;81.27
50310;BME280;36207;51.850;21.698;2023-03-04T07:28:19;99207.98;;;1.06;81.50
50310;BME280;36207;51.850;21.698;2023-03-04T07:30:45;99209.02;;;1.07;81.48
50310;BME280;36207;51.850;21.698;2023-03-04T07:33:12;99208.03;;;1.08;81.67
50310;BME280;36207;51.850;21.698;2023-03-04T07:35:38;99211.66;;;1.08;81.78
50310;BME280;36207;51.850;21.698;2023-03-04T07:38:04;99208.56;;;1.08;81.48
50310;BME280;36207;51.850;21.698;2023-03-04T07:40:29;99212.68;;;1.08;81.63
50310;BME280;36207;51.850;21.698;2023-03-04T07:42:55;99211.14;;;1.06;81.74
50310;BME280;36207;51.850;21.698;2023-03-04T07:45:22;99214.73;;;1.07;81.87
50310;BME280;36207;51.850;21.698;2023-03-04T07:47:49;99212.91;;;1.08;81.89
50310;BME280;36207;51.850;21.698;2023-03-04T07:50:16;99213.50;;;1.09;82.13
50310;BME280;36207;51.850;21.698;2023-03-04T07:52:44;99209.12;;;1.09;82.23
50310;BME280;36207;51.850;21.698;2023-03-04T07:55:12;99207.42;;;1.08;82.11
50310;BME280;36207;51.850;21.698;2023-03-04T07:57:40;99203.13;;;1.09;82.34
50310;BME280;36207;51.850;21.698;2023-03-04T08:00:07;99204.75;;;1.09;82.30
50310;BME280;36207;51.850;21.698;2023-03-04T08:02:33;99200.20;;;1.09;82.27
50310;BME280;36207;51.850;21.698;2023-03-04T08:04:59;99201.80;;;1.08;82.30
50310;BME280;36207;51.850;21.698;2023-03-04T08:07:24;99196.25;;;1.10;82.64
50310;BME280;36207;51.850;21.698;2023-03-04T08:09:50;99194.95;;;1.11;82.60
50310;BME280;36207;51.850;21.698;2023-03-04T08:12:17;99192.67;;;1.11;82.65
50310;BME280;36207;51.850;21.698;2023-03-04T08:14:43;99189.52;;;1.11;82.55
50310;BME280;36207;51.850;21.698;2023-03-04T08:17:09;99188.44;;;1.11;82.54
50310;BME280;36207;51.850;21.698;2023-03-04T08:19:35;99190.85;;;1.12;82.57
50310;BME280;36207;51.850;21.698;2023-03-04T08:22:01;99186.95;;;1.12;82.49
50310;BME280;36207;51.850;21.698;2023-03-04T08:24:27;99182.89;;;1.13;82.52
50310;BME280;36207;51.850;21.698;2023-03-04T08:26:53;99182.23;;;1.14;82.44
50310;BME280;36207;51.850;21.698;2023-03-04T08:29:21;99181.64;;;1.15;82.55
50310;BME280;36207;51.850;21.698;2023-03-04T08:31:48;99180.41;;;1.17;82.61
50310;BME280;36207;51.850;21.698;2023-03-04T08:34:15;99180.36;;;1.17;82.27
50310;BME280;36207;51.850;21.698;2023-03-04T08:36:41;99180.91;;;1.17;82.19
50310;BME280;36207;51.850;21.698;2023-03-04T08:39:08;99180.00;;;1.17;81.94
50310;BME280;36207;51.850;21.698;2023-03-04T08:41:36;99183.11;;;1.20;82.00
50310;BME280;36207;51.850;21.698;2023-03-04T08:44:03;99182.02;;;1.22;82.02
50310;BME280;36207;51.850;21.698;2023-03-04T08:46:29;99176.86;;;1.23;81.86
50310;BME280;36207;51.850;21.698;2023-03-04T08:48:55;99177.23;;;1.23;81.67
50310;BME280;36207;51.850;21.698;2023-03-04T08:51:21;99175.73;;;1.26;81.74
50310;BME280;36207;51.850;21.698;2023-03-04T08:53:47;99176.39;;;1.28;81.59
50310;BME280;36207;51.850;21.698;2023-03-04T08:56:13;99177.77;;;1.30;81.58
50310;BME280;36207;51.850;21.698;2023-03-04T08:58:39;99176.41;;;1.29;81.32
50310;BME280;36207;51.850;21.698;2023-03-04T09:01:10;99173.23;;;1.30;80.94
50310;BME280;36207;51.850;21.698;2023-03-04T09:03:36;99175.98;;;1.31;80.80
50310;BME280;36207;51.850;21.698;2023-03-04T09:06:03;99177.52;;;1.31;80.88
50310;BME280;36207;51.850;21.698;2023-03-04T09:08:29;99176.52;;;1.32;80.86
50310;BME280;36207;51.850;21.698;2023-03-04T09:10:55;99175.02;;;1.33;80.72
50310;BME280;36207;51.850;21.698;2023-03-04T09:13:23;99175.14;;;1.34;80.36
50310;BME280;36207;51.850;21.698;2023-03-04T09:15:51;99171.63;;;1.36;80.12
50310;BME280;36207;51.850;21.698;2023-03-04T09:18:18;99167.95;;;1.36;80.04
50310;BME280;36207;51.850;21.698;2023-03-04T09:20:45;99172.23;;;1.37;80.19
50310;BME280;36207;51.850;21.698;2023-03-04T09:23:11;99168.15;;;1.38;80.23
50310;BME280;36207;51.850;21.698;2023-03-04T09:25:38;99170.21;;;1.40;80.34
50310;BME280;36207;51.850;21.698;2023-03-04T09:28:05;99166.10;;;1.41;80.31
50310;BME280;36207;51.850;21.698;2023-03-04T09:30:32;99164.38;;;1.41;80.30
50310;BME280;36207;51.850;21.698;2023-03-04T09:32:58;99161.09;;;1.42;80.33
50310;BME280;36207;51.850;21.698;2023-03-04T09:35:25;99162.15;;;1.42;80.39
50310;BME280;36207;51.850;21.698;2023-03-04T09:37:50;99160.71;;;1.42;80.67
50310;BME280;36207;51.850;21.698;2023-03-04T09:40:20;99155.73;;;1.41;80.49
50310;BME280;36207;51.850;21.698;2023-03-04T09:42:50;99154.81;;;1.42;80.99
50310;BME280;36207;51.850;21.698;2023-03-04T09:45:20;99148.30;;;1.42;80.91
50310;BME280;36207;51.850;21.698;2023-03-04T09:47:48;99144.46;;;1.43;81.02
50310;BME280;36207;51.850;21.698;2023-03-04T09:50:16;99134.95;;;1.44;81.19
50310;BME280;36207;51.850;21.698;2023-03-04T09:55:39;99124.95;;;1.46;81.27
50310;BME280;36207;51.850;21.698;2023-03-04T09:58:28;99119.64;;;1.48;81.19
50310;BME280;36207;51.850;21.698;2023-03-04T10:01:12;99119.31;;;1.50;80.81
50310;BME280;36207;51.850;21.698;2023-03-04T10:03:45;99115.74;;;1.50;80.64
50310;BME280;36207;51.850;21.698;2023-03-04T10:06:17;99114.30;;;1.53;80.66
50310;BME280;36207;51.850;21.698;2023-03-04T10:08:54;99110.41;;;1.55;80.66
50310;BME280;36207;51.850;21.698;2023-03-04T10:11:31;99100.60;;;1.56;80.36
50310;BME280;36207;51.850;21.698;2023-03-04T10:16:44;99100.01;;;1.61;80.49
50310;BME280;36207;51.850;21.698;2023-03-04T10:21:42;99094.47;;;1.62;79.96
50310;BME280;36207;51.850;21.698;2023-03-04T10:24:11;99095.67;;;1.62;80.04
50310;BME280;36207;51.850;21.698;2023-03-04T10:26:38;99097.83;;;1.60;79.97
50310;BME280;36207;51.850;21.698;2023-03-04T10:29:07;99098.77;;;1.61;80.18
50310;BME280;36207;51.850;21.698;2023-03-04T10:31:36;99093.27;;;1.64;80.23
50310;BME280;36207;51.850;21.698;2023-03-04T10:34:03;99091.65;;;1.64;80.21
50310;BME280;36207;51.850;21.698;2023-03-04T10:41:25;99081.62;;;1.66;79.98
50310;BME280;36207;51.850;21.698;2023-03-04T10:46:23;99082.27;;;1.65;80.05
50310;BME280;36207;51.850;21.698;2023-03-04T10:48:49;99075.90;;;1.64;80.03
50310;BME280;36207;51.850;21.698;2023-03-04T10:51:23;99075.08;;;1.67;80.14
50310;BME280;36207;51.850;21.698;2023-03-04T10:53:51;99072.50;;;1.68;80.34
50310;BME280;36207;51.850;21.698;2023-03-04T11:02:33;99061.48;;;1.71;80.20
50310;BME280;36207;51.850;21.698;2023-03-04T11:15:25;99054.47;;;1.76;80.08
50310;BME280;36207;51.850;21.698;2023-03-04T11:18:02;99050.80;;;1.76;79.99
50310;BME280;36207;51.850;21.698;2023-03-04T11:20:32;99046.77;;;1.76;79.96
50310;BME280;36207;51.850;21.698;2023-03-04T11:23:38;99049.81;;;1.78;80.01
50310;BME280;36207;51.850;21.698;2023-03-04T11:26:11;99046.60;;;1.78;79.77
50310;BME280;36207;51.850;21.698;2023-03-04T11:29:24;99042.14;;;1.81;79.89
50310;BME280;36207;51.850;21.698;2023-03-04T11:32:07;99041.11;;;1.83;79.88
50310;BME280;36207;51.850;21.698;2023-03-04T11:34:43;99035.77;;;1.85;79.83
50310;BME280;36207;51.850;21.698;2023-03-04T11:42:50;99029.33;;;1.88;79.90
50310;BME280;36207;51.850;21.698;2023-03-04T11:53:46;99014.71;;;1.96;79.59
50310;BME280;36207;51.850;21.698;2023-03-04T11:56:18;99016.52;;;1.97;79.78
50310;BME280;36207;51.850;21.698;2023-03-04T12:15:49;98991.08;;;2.08;80.31
50310;BME280;36207;51.850;21.698;2023-03-04T12:23:36;98993.77;;;2.09;80.77
50310;BME280;36207;51.850;21.698;2023-03-04T12:26:21;98989.04;;;2.09;80.82
50310;BME280;36207;51.850;21.698;2023-03-04T12:28:56;98990.82;;;2.11;80.90
50310;BME280;36207;51.850;21.698;2023-03-04T12:31:36;98990.03;;;2.10;80.87
50310;BME280;36207;51.850;21.698;2023-03-04T12:45:08;98980.76;;;2.15;81.54
50310;BME280;36207;51.850;21.698;2023-03-04T12:48:13;98978.48;;;2.16;81.35
50310;BME280;36207;51.850;21.698;2023-03-04T12:53:25;98980.41;;;2.20;81.66
50310;BME280;36207;51.850;21.698;2023-03-04T12:55:55;98982.29;;;2.20;81.84
50310;BME280;36207;51.850;21.698;2023-03-04T12:58:25;98982.20;;;2.18;82.11
50310;BME280;36207;51.850;21.698;2023-03-04T13:01:11;98985.00;;;2.18;82.56
50310;BME280;36207;51.850;21.698;2023-03-04T13:04:08;98980.07;;;2.18;82.80
50310;BME280;36207;51.850;21.698;2023-03-04T13:06:53;98976.42;;;2.16;83.08
50310;BME280;36207;51.850;21.698;2023-03-04T13:09:33;98971.91;;;2.16;83.28
50310;BME280;36207;51.850;21.698;2023-03-04T13:14:38;98969.05;;;2.16;83.37
50310;BME280;36207;51.850;21.698;2023-03-04T13:17:41;98965.14;;;2.16;83.29
50310;BME280;36207;51.850;21.698;2023-03-04T13:22:58;98952.33;;;2.16;83.36
50310;BME280;36207;51.850;21.698;2023-03-04T13:25:29;98952.32;;;2.16;83.61
50310;BME280;36207;51.850;21.698;2023-03-04T13:32:57;98944.10;;;2.20;83.67
50310;BME280;36207;51.850;21.698;2023-03-04T13:46:53;98957.42;;;2.11;84.21
50310;BME280;36207;51.850;21.698;2023-03-04T13:49:21;98962.98;;;2.12;83.70
50310;BME280;36207;51.850;21.698;2023-03-04T13:51:51;98963.70;;;2.15;83.41
50310;BME280;36207;51.850;21.698;2023-03-04T13:54:31;98966.46;;;2.14;83.24
50310;BME280;36207;51.850;21.698;2023-03-04T13:59:54;98966.61;;;2.09;83.00
50310;BME280;36207;51.850;21.698;2023-03-04T14:02:23;98969.73;;;2.14;83.25
50310;BME280;36207;51.850;21.698;2023-03-04T14:07:30;98964.45;;;2.25;84.00
50310;BME280;36207;51.850;21.698;2023-03-04T14:12:38;98955.53;;;2.30;85.00
50310;BME280;36207;51.850;21.698;2023-03-04T14:15:20;98949.63;;;2.35;85.39
50310;BME280;36207;51.850;21.698;2023-03-04T14:17:50;98947.70;;;2.38;85.40
50310;BME280;36207;51.850;21.698;2023-03-04T14:22:46;98941.32;;;2.42;86.26
50310;BME280;36207;51.850;21.698;2023-03-04T14:27:37;98941.19;;;2.47;86.07
50310;BME280;36207;51.850;21.698;2023-03-04T14:30:18;98944.77;;;2.48;85.79
50310;BME280;36207;51.850;21.698;2023-03-04T14:32:45;98946.23;;;2.49;85.55
50310;BME280;36207;51.850;21.698;2023-03-04T14:35:19;98945.71;;;2.51;85.10
50310;BME280;36207;51.850;21.698;2023-03-04T14:38:24;98944.48;;;2.53;84.57
50310;BME280;36207;51.850;21.698;2023-03-04T14:41:09;98946.64;;;2.52;83.87
50310;BME280;36207;51.850;21.698;2023-03-04T14:43:49;98945.87;;;2.50;83.16
50310;BME280;36207;51.850;21.698;2023-03-04T14:46:18;98935.96;;;2.50;83.49
50310;BME280;36207;51.850;21.698;2023-03-04T14:48:50;98935.20;;;2.53;83.63
50310;BME280;36207;51.850;21.698;2023-03-04T14:51:38;98936.04;;;2.56;83.69
50310;BME280;36207;51.850;21.698;2023-03-04T14:54:06;98940.24;;;2.65;83.37
50310;BME280;36207;51.850;21.698;2023-03-04T14:56:34;98937.34;;;2.70;83.02
50310;BME280;36207;51.850;21.698;2023-03-04T14:59:00;98935.55;;;2.72;83.04
50310;BME280;36207;51.850;21.698;2023-03-04T15:01:34;98938.88;;;2.70;82.81
50310;BME280;36207;51.850;21.698;2023-03-04T15:04:06;98946.73;;;2.70;83.07
50310;BME280;36207;51.850;21.698;2023-03-04T15:06:35;98945.85;;;2.73;82.96
50310;BME280;36207;51.850;21.698;2023-03-04T15:09:07;98941.48;;;2.76;83.03
50310;BME280;36207;51.850;21.698;2023-03-04T15:11:50;98943.34;;;2.80;83.03